Huntington Lower Village, Vermont
Current Conditions -  °F | °C
As of 10:54 AM on Sunday 23 Nov 2014 (Local Time) from KBTV Reporting Station
Overcast Overcast  
Wind Chill: 41°   Ceiling: 2700
Heat Index: 45°   Visibility: 10mi
Dew Point: 37°   Wind: 8mph
Humidity: 74%   Direction: 190°S
Pressure: 30.06"   Gusts: NA
Location:  44.3099°N, 72.982°W
Report Text: KBTV 231554Z 19007KT 10SM OVC027 07/03 A3006 RMK AO2 SLP182 T00720028
Loading
Personal Weather Stations






























Interactive Weather Map New forecast layout! Learn more

10-Day Weather Forecast

Advertisements
Track Severe Weather on mobile